Time;durP1;ratioP1;P1;durP2;ratioP2;P2;SDS_P1;SDS_P2;PMS_P1;PMS_P2;Temp;Humidity;BMP_temperature;BMP_pressure;BME280_temperature;BME280_humidity;BME280_pressure;Samples;Min_cycle;Max_cycle;Signal;HPM_P1;HPM_P2
2023/04/16 00:01:33;;;;;;;26.63;24.33;;;;;;;9.79;99.89;100597.97;5019133;28;20214;-84
2023/04/16 00:04:00;;;;;;;25.80;23.13;;;;;;;9.79;99.52;100621.44;5019203;28;20210;-85
2023/04/16 00:06:26;;;;;;;25.27;23.17;;;;;;;9.82;99.23;100629.22;5018639;28;20226;-84
2023/04/16 00:08:53;;;;;;;26.30;23.63;;;;;;;9.79;99.04;100632.75;5018885;28;20652;-85
2023/04/16 00:11:20;;;;;;;25.50;22.93;;;;;;;9.87;99.01;100637.84;5018740;28;20233;-85
2023/04/16 00:13:47;;;;;;;25.10;22.47;;;;;;;9.93;98.50;100651.69;5018669;28;20213;-85
2023/04/16 00:16:13;;;;;;;25.93;23.50;;;;;;;9.89;98.30;100659.53;5018181;28;20265;-84
2023/04/16 00:18:40;;;;;;;28.03;24.00;;;;;;;9.88;98.39;100660.44;5018459;28;20251;-83
2023/04/16 00:21:06;;;;;;;27.13;24.60;;;;;;;9.96;98.12;100661.19;5017922;28;20208;-83
2023/04/16 00:23:33;;;;;;;25.83;23.27;;;;;;;9.98;97.75;100672.47;5018912;28;20669;-84
2023/04/16 00:25:59;;;;;;;25.67;23.37;;;;;;;10.00;97.26;100680.28;5019179;28;20235;-84
2023/04/16 00:28:27;;;;;;;30.13;23.77;;;;;;;9.90;97.33;100693.41;5018918;28;20316;-84
2023/04/16 00:30:54;;;;;;;26.90;24.40;;;;;;;9.97;97.20;100683.78;5019606;28;20207;-83
2023/04/16 00:33:20;;;;;;;25.57;23.33;;;;;;;9.95;97.36;100693.38;5017791;28;20251;-83
2023/04/16 00:35:46;;;;;;;26.47;23.87;;;;;;;9.95;97.42;100693.38;5018826;28;20210;-84
2023/04/16 00:38:13;;;;;;;27.23;24.40;;;;;;;9.89;97.67;100685.59;5018479;28;20229;-84
2023/04/16 00:40:40;;;;;;;27.47;24.83;;;;;;;9.86;97.41;100685.66;5018660;28;20227;-83
2023/04/16 00:43:06;;;;;;;28.17;25.43;;;;;;;9.79;97.76;100679.66;5019304;28;20205;-83
2023/04/16 00:45:34;;;;;;;26.67;24.07;;;;;;;9.77;98.17;100675.34;5019073;28;20213;-84
2023/04/16 00:48:01;;;;;;;26.80;24.30;;;;;;;9.77;98.22;100672.72;5018036;28;20225;-83
2023/04/16 00:50:27;;;;;;;28.47;25.90;;;;;;;9.80;98.01;100670.94;5018913;28;20750;-84
2023/04/16 00:52:54;;;;;;;27.57;24.77;;;;;;;9.84;97.81;100674.38;5018192;28;20214;-84
2023/04/16 00:55:21;;;;;;;27.93;25.07;;;;;;;9.83;98.01;100686.56;5018820;28;20211;-85
2023/04/16 00:57:47;;;;;;;28.23;25.10;;;;;;;9.86;97.91;100678.69;5017986;28;20581;-82
2023/04/16 01:00:14;;;;;;;28.60;26.10;;;;;;;9.78;98.44;100666.66;5018832;28;20222;-84
2023/04/16 01:02:41;;;;;;;28.90;26.17;;;;;;;9.81;98.01;100672.69;5018317;28;20635;-83
2023/04/16 01:05:09;;;;;;;29.07;26.03;;;;;;;9.81;97.89;100672.69;5018139;28;20570;-83
2023/04/16 01:07:35;;;;;;;29.30;26.17;;;;;;;9.87;97.50;100685.66;5018269;28;20236;-84
2023/04/16 01:10:02;;;;;;;27.33;24.70;;;;;;;9.87;97.49;100682.16;5017694;28;20261;-83
2023/04/16 01:12:28;;;;;;;31.93;25.97;;;;;;;9.89;97.42;100690.81;5018084;28;20260;-83
2023/04/16 01:14:54;;;;;;;28.70;25.97;;;;;;;9.91;97.33;100700.38;5018259;28;20206;-84
2023/04/16 01:17:21;;;;;;;27.27;24.67;;;;;;;9.96;96.98;100707.28;5016892;28;20251;-82
2023/04/16 01:19:48;;;;;;;34.07;25.60;;;;;;;9.86;97.04;100707.38;5019023;28;20232;-82
2023/04/16 01:22:16;;;;;;;28.60;25.63;;;;;;;9.86;97.06;100696.94;5019102;28;20233;-83
2023/04/16 01:24:42;;;;;;;28.20;25.57;;;;;;;9.81;97.19;100703.09;5021250;28;20269;-83
2023/04/16 01:27:09;;;;;;;30.07;26.87;;;;;;;9.53;99.12;100687.75;5018682;28;20233;-84
2023/04/16 01:29:35;;;;;;;30.67;27.43;;;;;;;9.38;100.00;100664.50;5018466;28;20212;-83
2023/04/16 01:32:01;;;;;;;34.77;28.43;;;;;;;9.13;100.00;100629.13;5016957;28;20208;-83
2023/04/16 01:34:28;;;;;;;34.10;29.57;;;;;;;9.17;100.00;100597.84;5016967;28;20685;-84
2023/04/16 01:36:54;;;;;;;34.37;30.13;;;;;;;9.10;100.00;100576.22;5017700;28;20638;-84
2023/04/16 01:39:22;;;;;;;34.20;30.30;;;;;;;9.17;100.00;100569.19;5017692;28;20285;-84
2023/04/16 01:41:48;;;;;;;37.83;29.30;;;;;;;9.30;100.00;100565.59;5017874;28;20678;-84
2023/04/16 01:44:15;;;;;;;31.87;28.40;;;;;;;9.38;100.00;100581.13;5018007;28;20207;-84
2023/04/16 01:46:41;;;;;;;31.90;27.87;;;;;;;9.38;100.00;100589.78;5016838;28;20250;-84
2023/04/16 01:49:07;;;;;;;39.40;28.33;;;;;;;9.43;100.00;100611.44;5017300;28;20400;-85
2023/04/16 01:51:34;;;;;;;32.27;27.37;;;;;;;9.52;100.00;100620.91;5017228;28;20209;-83
2023/04/16 01:54:00;;;;;;;31.80;27.27;;;;;;;9.57;100.00;100632.13;5016835;28;20237;-84
2023/04/16 01:56:28;;;;;;;32.43;27.23;;;;;;;9.52;100.00;100642.59;5016288;28;20226;-83
2023/04/16 01:58:54;;;;;;;32.67;27.17;;;;;;;9.45;100.00;100651.34;5016866;28;20213;-85
2023/04/16 02:01:20;;;;;;;29.73;26.60;;;;;;;9.27;100.00;100646.34;5017628;28;20205;-85
2023/04/16 02:03:47;;;;;;;30.20;27.23;;;;;;;9.35;100.00;100628.88;5017229;28;20211;-84
2023/04/16 02:06:13;;;;;;;31.47;28.23;;;;;;;9.28;100.00;100627.25;5017353;28;20214;-84
2023/04/16 02:08:40;;;;;;;32.03;28.27;;;;;;;9.41;100.00;100627.97;5016683;28;20213;-85
2023/04/16 02:11:06;;;;;;;30.27;27.17;;;;;;;9.47;100.00;100638.31;5017419;28;20306;-85
2023/04/16 02:13:34;;;;;;;29.43;26.30;;;;;;;9.26;100.00;100652.47;5017497;28;20260;-84
2023/04/16 02:16:01;;;;;;;32.20;27.97;;;;;;;9.11;100.00;100633.47;5017062;28;20211;-83
2023/04/16 02:18:28;;;;;;;32.40;28.83;;;;;;;9.05;100.00;100638.75;5016986;28;20235;-84
2023/04/16 02:20:54;;;;;;;37.40;28.77;;;;;;;9.07;100.00;100631.78;5016951;28;20228;-84
2023/04/16 02:23:20;;;;;;;33.37;27.83;;;;;;;9.18;100.00;100621.28;5017134;28;20662;-84
2023/04/16 02:25:47;;;;;;;30.40;26.97;;;;;;;9.26;100.00;100626.41;5023856;28;20214;-83
2023/04/16 02:28:15;;;;;;;39.07;28.60;;;;;;;9.06;100.00;100639.63;5038017;28;20236;-83
2023/04/16 02:30:43;;;;;;;34.47;29.90;;;;;;;8.99;100.00;100622.31;5038182;28;20216;-83
2023/04/16 02:33:11;;;;;;;32.13;26.83;;;;;;;9.07;100.00;100623.13;5038346;28;20228;-83
2023/04/16 02:35:38;;;;;;;31.00;27.70;;;;;;;8.94;100.00;100632.78;5038326;28;20188;-84
2023/04/16 02:38:05;;;;;;;29.80;26.50;;;;;;;9.04;100.00;100630.94;5023342;28;20224;-84
2023/04/16 02:40:31;;;;;;;39.20;28.67;;;;;;;9.10;100.00;100636.97;5016397;28;20225;-83
2023/04/16 02:42:58;;;;;;;33.03;29.27;;;;;;;9.23;100.00;100642.91;5016268;28;20689;-83
2023/04/16 02:45:24;;;;;;;31.70;28.10;;;;;;;9.23;100.00;100666.34;5015840;28;20634;-83
2023/04/16 02:47:52;;;;;;;35.23;28.73;;;;;;;9.29;100.00;100681.91;5015312;28;20230;-84
2023/04/16 02:50:18;;;;;;;35.53;29.07;;;;;;;9.23;99.29;100708.03;5015775;28;20208;-82
2023/04/16 02:52:45;;;;;;;35.57;29.80;;;;;;;9.30;99.28;100708.84;5016122;28;20209;-83
2023/04/16 02:55:12;;;;;;;35.40;28.53;;;;;;;9.21;99.02;100715.00;5015643;28;20208;-84
2023/04/16 02:57:38;;;;;;;35.97;28.93;;;;;;;9.23;98.64;100726.25;5015375;28;20228;-84
2023/04/16 03:00:06;;;;;;;36.03;28.87;;;;;;;9.27;98.02;100740.13;5015461;28;20230;-83
2023/04/16 03:02:32;;;;;;;37.80;28.63;;;;;;;9.26;97.88;100761.84;5015479;28;20207;-83
2023/04/16 03:05:00;;;;;;;36.83;27.93;;;;;;;9.30;97.60;100761.81;5015535;28;20209;-83
2023/04/16 03:07:26;;;;;;;30.33;27.23;;;;;;;9.34;97.30;100770.47;5014943;28;20726;-83
2023/04/16 03:09:52;;;;;;;39.07;28.93;;;;;;;9.32;97.05;100767.88;5014788;28;20200;-82
2023/04/16 03:12:19;;;;;;;37.47;27.07;;;;;;;9.35;96.82;100782.59;5014914;28;20267;-83
2023/04/16 03:14:45;;;;;;;32.37;27.03;;;;;;;9.29;96.94;100786.13;5014924;28;20210;-83
2023/04/16 03:17:12;;;;;;;33.30;27.20;;;;;;;9.28;96.89;100788.75;5014697;28;20234;-83
2023/04/16 03:19:38;;;;;;;33.17;26.33;;;;;;;9.22;96.96;100791.41;5014005;28;20234;-83
2023/04/16 03:22:05;;;;;;;33.33;26.17;;;;;;;9.13;97.03;100792.31;5013908;28;20635;-82
2023/04/16 03:24:32;;;;;;;40.17;28.20;;;;;;;9.10;97.01;100792.38;5014409;28;20636;-82
2023/04/16 03:26:58;;;;;;;37.90;27.93;;;;;;;9.10;97.20;100797.56;5014769;28;20229;-83
2023/04/16 03:29:25;;;;;;;34.93;27.70;;;;;;;9.02;97.53;100795.03;5014457;28;20207;-83
2023/04/16 03:31:51;;;;;;;30.33;27.00;;;;;;;9.04;97.74;100787.16;5015336;28;20203;-83
2023/04/16 03:34:18;;;;;;;34.00;26.77;;;;;;;9.08;97.63;100781.94;5013828;28;20204;-83
2023/04/16 03:36:44;;;;;;;29.93;26.73;;;;;;;9.10;97.40;100780.19;5013654;28;20647;-83
2023/04/16 03:39:12;;;;;;;31.63;26.03;;;;;;;9.08;97.53;100784.56;5013691;28;20690;-83
2023/04/16 03:41:38;;;;;;;35.40;26.77;;;;;;;9.13;97.37;100774.94;5013714;28;20230;-83
2023/04/16 03:44:05;;;;;;;27.60;24.83;;;;;;;9.12;97.18;100782.81;5013557;28;20210;-82
2023/04/16 03:46:31;;;;;;;32.77;26.37;;;;;;;9.06;97.07;100794.13;5013267;28;20236;-83
2023/04/16 03:48:57;;;;;;;35.50;26.80;;;;;;;9.13;97.44;100785.38;5013311;28;20262;-83
2023/04/16 03:51:23;;;;;;;30.43;25.60;;;;;;;9.14;96.95;100804.47;5013455;28;20207;-83
2023/04/16 03:53:50;;;;;;;29.57;25.83;;;;;;;9.24;96.53;100800.06;5013762;28;20212;-84
2023/04/16 03:56:18;;;;;;;36.00;25.73;;;;;;;9.23;96.59;100808.75;5014963;28;20208;-82
2023/04/16 03:58:44;;;;;;;35.03;27.13;;;;;;;9.15;96.90;100801.84;5016909;28;20204;-83
2023/04/16 04:01:10;;;;;;;38.13;28.30;;;;;;;8.72;99.38;100770.03;5017147;28;20645;-82
2023/04/16 04:03:37;;;;;;;35.40;29.20;;;;;;;8.58;100.00;100738.88;5016721;28;20680;-84
2023/04/16 04:06:06;;;;;;;40.50;28.03;;;;;;;8.60;100.00;100707.66;5017052;28;20740;-83
2023/04/16 04:08:33;;;;;;;34.57;26.27;;;;;;;8.69;100.00;100710.19;5021393;28;20259;-83
2023/04/16 04:10:59;;;;;;;33.97;26.80;;;;;;;8.73;99.46;100727.53;5018513;28;20256;-84
2023/04/16 04:13:27;;;;;;;30.07;25.37;;;;;;;8.79;98.95;100744.84;5018848;28;20294;-84
2023/04/16 04:15:53;;;;;;;26.60;23.90;;;;;;;8.83;98.37;100750.00;5018779;28;20209;-85
2023/04/16 04:18:19;;;;;;;31.20;25.90;;;;;;;8.77;98.27;100772.63;5035744;22;20226;-79
2023/04/16 04:20:46;;;;;;;31.23;25.17;;;;;;;8.73;98.75;100763.97;5035540;28;20233;-79
2023/04/16 04:23:12;;;;;;;30.23;24.80;;;;;;;8.73;98.08;100783.03;5036266;28;20735;-79
2023/04/16 04:25:38;;;;;;;30.03;25.20;;;;;;;8.79;98.03;100794.28;5037135;28;20276;-79
2023/04/16 04:28:05;;;;;;;33.70;25.93;;;;;;;8.74;97.50;100794.31;5035936;28;20300;-79
2023/04/16 04:30:34;;;;;;;33.10;26.23;;;;;;;8.77;97.59;100794.28;5036212;28;20214;-79
2023/04/16 04:33:00;;;;;;;34.93;25.87;;;;;;;8.77;97.16;100802.09;5036124;28;20284;-79
2023/04/16 04:35:27;;;;;;;33.70;27.63;;;;;;;8.62;97.95;100797.88;5035853;28;20261;-78
2023/04/16 04:37:53;;;;;;;32.30;26.57;;;;;;;8.67;97.81;100790.03;5035542;28;20778;-77
2023/04/16 04:40:20;;;;;;;36.73;26.47;;;;;;;8.66;98.23;100789.16;5035795;28;20977;-79
2023/04/16 04:42:46;;;;;;;33.50;26.07;;;;;;;8.66;97.89;100794.38;5035719;28;20211;-79
2023/04/16 04:45:12;;;;;;;34.90;26.10;;;;;;;8.60;98.39;100785.72;5035683;28;20208;-79
2023/04/16 04:47:40;;;;;;;31.40;26.27;;;;;;;8.64;98.75;100783.09;5029788;28;20281;-78
2023/04/16 04:50:07;;;;;;;32.30;26.00;;;;;;;8.65;98.82;100786.56;5015351;28;20567;-79
2023/04/16 04:52:34;;;;;;;27.53;24.43;;;;;;;8.72;98.54;100791.72;5016305;28;20212;-78
2023/04/16 04:55:00;;;;;;;39.17;26.83;;;;;;;8.73;97.93;100800.41;5016043;28;20342;-78
2023/04/16 04:57:26;;;;;;;33.73;26.37;;;;;;;8.73;98.09;100806.47;5015951;28;20231;-78
2023/04/16 04:59:53;;;;;;;32.33;26.17;;;;;;;8.77;97.76;100814.25;5015694;28;20276;-78
2023/04/16 05:02:19;;;;;;;40.03;26.73;;;;;;;8.77;97.35;100829.88;5016076;28;20211;-78
2023/04/16 05:04:47;;;;;;;35.17;26.20;;;;;;;8.69;97.61;100829.91;5015658;28;20208;-78
2023/04/16 05:07:13;;;;;;;36.70;26.03;;;;;;;8.77;97.09;100833.34;5015152;28;20725;-77
2023/04/16 05:09:39;;;;;;;33.50;26.67;;;;;;;8.79;96.85;100851.56;5015454;28;20203;-81
2023/04/16 05:12:06;;;;;;;29.93;26.67;;;;;;;8.77;97.04;100841.16;5015732;28;20250;-79
2023/04/16 05:14:32;;;;;;;29.60;24.40;;;;;;;8.79;97.05;100844.59;5016358;28;20209;-78
2023/04/16 05:16:59;;;;;;;31.53;25.57;;;;;;;8.81;96.96;100852.41;5015136;28;20234;-79
2023/04/16 05:19:25;;;;;;;29.43;24.43;;;;;;;8.47;98.51;100840.41;5014994;28;20261;-79
2023/04/16 05:21:53;;;;;;;33.87;26.37;;;;;;;8.25;100.00;100802.31;5015859;28;20226;-81
2023/04/16 05:24:20;;;;;;;37.07;27.10;;;;;;;8.13;100.00;100764.22;5017087;28;20211;-81
2023/04/16 05:26:46;;;;;;;34.10;26.37;;;;;;;7.98;100.00;100731.34;5016084;28;20265;-78
2023/04/16 05:29:12;;;;;;;35.27;26.93;;;;;;;7.75;100.00;100702.84;5015438;28;20266;-78
2023/04/16 05:31:39;;;;;;;38.47;28.50;;;;;;;7.80;100.00;100669.03;5015465;28;20217;-78
2023/04/16 05:34:06;;;;;;;37.23;28.23;;;;;;;7.96;100.00;100665.50;5015361;28;20209;-78
2023/04/16 05:36:32;;;;;;;38.93;27.63;;;;;;;7.88;100.00;100662.06;5016801;28;20202;-80
2023/04/16 05:39:00;;;;;;;40.40;28.97;;;;;;;7.80;100.00;100653.44;5016608;28;20228;-81
2023/04/16 05:41:26;;;;;;;43.73;29.33;;;;;;;7.55;100.00;100641.41;5017038;28;20226;-81
2023/04/16 05:43:52;;;;;;;38.37;28.03;;;;;;;7.55;100.00;100627.53;5016505;28;20216;-81
2023/04/16 05:46:19;;;;;;;42.33;29.43;;;;;;;7.54;100.00;100616.28;5016500;28;20626;-80
2023/04/16 05:48:45;;;;;;;44.67;28.50;;;;;;;7.76;100.00;100613.63;5015958;28;20235;-80
2023/04/16 05:51:11;;;;;;;41.67;28.50;;;;;;;7.87;100.00;100623.94;5016786;28;20203;-81
2023/04/16 05:53:37;;;;;;;40.37;28.00;;;;;;;7.83;100.00;100645.63;5016728;28;20207;-81
2023/04/16 05:56:06;;;;;;;33.07;26.17;;;;;;;7.93;100.00;100661.19;5016791;28;20211;-81
2023/04/16 05:58:32;;;;;;;34.77;26.93;;;;;;;8.04;100.00;100679.31;5015481;28;20231;-78
2023/04/16 06:00:59;;;;;;;36.20;27.13;;;;;;;7.84;100.00;100692.41;5015210;28;20293;-78
2023/04/16 06:03:26;;;;;;;33.30;26.90;;;;;;;7.85;100.00;100685.47;5015113;28;20216;-78
2023/04/16 06:05:52;;;;;;;31.77;25.57;;;;;;;7.98;100.00;100688.88;5015883;28;20265;-80
2023/04/16 06:08:19;;;;;;;33.73;26.10;;;;;;;8.01;100.00;100694.94;5015827;28;20276;-81
2023/04/16 06:10:46;;;;;;;32.23;26.47;;;;;;;8.11;100.00;100706.16;5015425;28;20211;-79
2023/04/16 06:13:14;;;;;;;35.20;25.50;;;;;;;8.05;100.00;100725.25;5015505;28;20206;-78
2023/04/16 06:15:40;;;;;;;35.93;26.13;;;;;;;8.01;100.00;100722.66;5015775;28;20203;-80
2023/04/16 06:18:06;;;;;;;39.20;26.23;;;;;;;8.03;100.00;100726.16;5014486;28;20769;-79
2023/04/16 06:20:33;;;;;;;34.80;25.13;;;;;;;7.98;100.00;100736.53;5014719;28;20285;-78
2023/04/16 06:22:59;;;;;;;31.77;25.97;;;;;;;7.92;100.00;100729.63;5014501;28;20206;-78
2023/04/16 06:25:25;;;;;;;35.50;26.20;;;;;;;7.93;100.00;100733.97;5013218;28;20242;-77
2023/04/16 06:27:52;;;;;;;38.43;24.63;;;;;;;8.02;100.00;100729.59;5012917;28;20231;-78
2023/04/16 06:30:20;;;;;;;35.80;24.63;;;;;;;7.79;100.00;100740.94;5012754;28;20709;-78
2023/04/16 06:32:46;;;;;;;34.80;26.50;;;;;;;7.80;100.00;100732.25;5013071;28;20299;-78
2023/04/16 06:35:13;;;;;;;36.67;27.47;;;;;;;7.78;100.00;100721.00;5013117;28;20298;-78
2023/04/16 06:37:39;;;;;;;35.37;26.63;;;;;;;7.72;100.00;100713.22;5012928;28;20238;-78
2023/04/16 06:40:06;;;;;;;29.70;24.70;;;;;;;7.73;100.00;100725.34;5012677;28;20206;-77
2023/04/16 06:42:33;;;;;;;38.10;26.57;;;;;;;7.71;100.00;100722.78;5012718;28;20227;-78
2023/04/16 06:44:59;;;;;;;35.10;25.50;;;;;;;7.82;100.00;100722.72;5012817;28;20208;-80
2023/04/16 06:47:27;;;;;;;32.40;25.40;;;;;;;7.97;100.00;100727.03;5012866;28;20802;-78
2023/04/16 06:49:53;;;;;;;32.67;25.33;;;;;;;7.90;100.00;100744.34;5004540;28;20254;-78
2023/04/16 06:52:19;;;;;;;30.30;23.97;;;;;;;7.81;100.00;100748.72;5012996;28;20202;-78
2023/04/16 06:54:46;;;;;;;32.93;24.63;;;;;;;7.65;100.00;100743.56;5012896;28;20268;-80
2023/04/16 06:57:12;;;;;;;27.40;24.43;;;;;;;7.79;100.00;100738.34;5012830;28;20720;-80
2023/04/16 06:59:38;;;;;;;27.93;24.30;;;;;;;7.93;100.00;100746.97;5012875;28;20215;-80
2023/04/16 07:02:05;;;;;;;30.70;24.70;;;;;;;8.04;100.00;100756.44;5013072;28;20253;-78
2023/04/16 07:04:32;;;;;;;31.90;24.83;;;;;;;8.14;100.00;100766.78;5012767;28;20236;-78
2023/04/16 07:06:59;;;;;;;34.53;25.60;;;;;;;8.25;100.00;100784.97;5012499;28;20277;-78
2023/04/16 07:09:26;;;;;;;33.13;26.17;;;;;;;8.41;100.00;100813.53;5012574;28;20206;-78
2023/04/16 07:11:52;;;;;;;33.47;26.80;;;;;;;8.51;100.00;100829.13;5012777;28;20218;-78
2023/04/16 07:14:18;;;;;;;30.03;24.33;;;;;;;8.61;100.00;100855.97;5012949;28;20211;-79
2023/04/16 07:16:45;;;;;;;31.97;22.90;;;;;;;8.66;100.00;100872.44;5011197;28;20255;-79
2023/04/16 07:19:11;;;;;;;24.97;22.57;;;;;;;8.47;100.00;100886.38;5013490;28;20266;-80
2023/04/16 07:21:40;;;;;;;24.23;21.90;;;;;;;8.54;100.00;100893.28;5013602;28;20223;-80
2023/04/16 07:24:07;;;;;;;24.00;21.57;;;;;;;8.63;100.00;100898.47;5013612;28;20729;-80
2023/04/16 07:26:33;;;;;;;24.73;22.13;;;;;;;8.58;100.00;100914.97;5013800;28;20211;-80
2023/04/16 07:28:59;;;;;;;26.97;23.70;;;;;;;8.60;100.00;100921.88;5013626;28;20253;-78
2023/04/16 07:31:26;;;;;;;28.40;22.83;;;;;;;8.64;99.51;100936.66;5017447;28;20206;-80
2023/04/16 07:33:53;;;;;;;25.73;22.57;;;;;;;8.74;99.11;100956.56;5018064;28;20208;-79
2023/04/16 07:36:19;;;;;;;25.60;21.27;;;;;;;8.80;98.29;100976.50;5017561;28;20204;-79
2023/04/16 07:38:47;;;;;;;29.13;22.70;;;;;;;8.80;97.80;100992.13;5016816;28;20659;-79
2023/04/16 07:41:13;;;;;;;23.57;21.20;;;;;;;8.84;98.13;100991.25;5017669;28;20722;-84
2023/04/16 07:43:39;;;;;;;24.60;22.13;;;;;;;8.74;96.88;101011.22;5018043;28;20207;-81
2023/04/16 07:46:06;;;;;;;22.93;20.80;;;;;;;8.79;97.05;101019.00;5017667;28;20216;-80
2023/04/16 07:48:32;;;;;;;23.93;21.50;;;;;;;8.81;97.16;101019.00;5016791;28;20239;-81
2023/04/16 07:50:58;;;;;;;24.23;21.73;;;;;;;8.83;96.54;101025.94;5016686;28;20731;-81
2023/04/16 07:53:25;;;;;;;23.67;21.40;;;;;;;8.86;96.47;101038.97;5017299;28;20259;-83
2023/04/16 07:55:53;;;;;;;27.53;21.03;;;;;;;8.90;95.78;101051.09;5010541;28;20200;-80
2023/04/16 07:58:19;;;;;;;24.00;21.93;;;;;;;8.95;95.31;101059.75;5006151;28;20223;-81
2023/04/16 08:00:45;;;;;;;21.73;19.67;;;;;;;9.00;94.77;101075.38;5006775;28;20205;-82
2023/04/16 08:03:12;;;;;;;22.43;20.10;;;;;;;8.92;95.04;101078.00;5008024;28;20726;-79
2023/04/16 08:05:38;;;;;;;22.77;20.57;;;;;;;9.00;94.29;101080.59;5006398;28;20628;-82
2023/04/16 08:08:04;;;;;;;23.67;20.20;;;;;;;9.03;94.41;101085.78;5014171;28;20272;-81
2023/04/16 08:10:31;;;;;;;21.67;19.47;;;;;;;8.91;94.42;101101.44;5016883;28;20222;-80
2023/04/16 08:13:00;;;;;;;21.90;19.70;;;;;;;8.88;95.39;101085.78;5017226;28;20219;-83
2023/04/16 08:15:26;;;;;;;22.73;19.47;;;;;;;8.75;94.72;101095.38;5009381;28;20231;-80
2023/04/16 08:17:53;;;;;;;21.73;19.63;;;;;;;8.83;95.06;101080.59;5009854;28;20294;-81
2023/04/16 08:20:19;;;;;;;21.17;19.03;;;;;;;8.95;94.56;101082.31;5010772;28;20628;-82
2023/04/16 08:22:46;;;;;;;22.63;18.77;;;;;;;9.02;94.25;101109.19;5016514;28;20224;-79
2023/04/16 08:25:12;;;;;;;24.37;19.03;;;;;;;9.06;94.01;101109.22;5015005;28;20211;-80
2023/04/16 08:27:39;;;;;;;19.93;17.93;;;;;;;9.12;93.18;101129.19;5006953;28;20219;-79
2023/04/16 08:30:08;;;;;;;21.00;19.17;;;;;;;9.11;93.25;101136.09;5016916;28;20203;-80
2023/04/16 08:32:34;;;;;;;21.23;19.13;;;;;;;9.13;93.15;101147.38;5013862;28;20195;-82
2023/04/16 08:35:00;;;;;;;22.73;20.57;;;;;;;9.09;93.35;101144.78;5005897;28;20572;-80
2023/04/16 08:37:27;;;;;;;21.87;19.57;;;;;;;9.15;93.34;101143.03;5007692;28;20266;-80
2023/04/16 08:39:54;;;;;;;20.80;18.93;;;;;;;9.24;92.80;101149.13;5016933;28;20206;-80
2023/04/16 08:42:29;;;;;;;21.73;19.53;;;;;;;9.21;92.37;101168.22;5016291;28;20270;-81
2023/04/16 08:45:04;;;;;;;18.90;17.23;;;;;;;9.25;92.63;101171.69;5007578;28;20204;-79
2023/04/16 08:47:34;;;;;;;20.37;18.47;;;;;;;9.34;92.65;101163.88;5007370;28;20236;-80
2023/04/16 08:50:02;;;;;;;21.33;18.10;;;;;;;9.41;91.93;101162.09;5008833;28;20209;-79
2023/04/16 08:52:31;;;;;;;20.67;18.77;;;;;;;9.48;91.23;101187.28;5005053;28;20661;-80
2023/04/16 08:55:04;;;;;;;21.20;19.40;;;;;;;9.53;91.31;101195.94;5006100;28;20261;-80
2023/04/16 08:57:38;;;;;;;25.60;19.53;;;;;;;9.59;91.14;101188.09;5007386;28;20224;-81
2023/04/16 09:00:07;;;;;;;20.83;18.93;;;;;;;9.58;90.70;101208.97;5005031;28;20678;-80
2023/04/16 09:02:35;;;;;;;21.03;18.93;;;;;;;9.57;90.47;101217.66;5009002;28;20224;-80
2023/04/16 09:05:05;;;;;;;22.53;20.30;;;;;;;9.59;90.94;101210.69;5015681;28;20261;-80
2023/04/16 09:07:33;;;;;;;24.20;20.23;;;;;;;9.60;90.12;101217.66;5016017;28;20231;-81
2023/04/16 09:10:00;;;;;;;19.73;17.93;;;;;;;9.61;89.67;101229.81;5015792;28;20208;-79
2023/04/16 09:12:27;;;;;;;21.73;19.63;;;;;;;9.60;89.76;101233.31;5014945;28;20274;-79
2023/04/16 09:14:55;;;;;;;22.20;19.87;;;;;;;9.61;90.21;101222.84;5008510;28;20198;-79
2023/04/16 09:17:22;;;;;;;21.50;19.40;;;;;;;9.64;90.42;101235.03;5007000;28;20722;-78
2023/04/16 09:19:49;;;;;;;22.30;19.90;;;;;;;9.66;90.79;101218.50;5009794;28;20210;-78
2023/04/16 09:22:16;;;;;;;20.73;18.70;;;;;;;9.69;90.34;101220.22;5006521;28;20225;-80
2023/04/16 09:24:43;;;;;;;20.63;18.60;;;;;;;9.69;90.55;101223.72;4996835;28;20217;-79
2023/04/16 09:27:09;;;;;;;18.97;17.13;;;;;;;9.70;90.08;101227.19;4996261;28;20229;-80
2023/04/16 09:29:40;;;;;;;21.33;19.27;;;;;;;9.69;90.28;101230.66;4996783;28;20206;-80
2023/04/16 09:32:07;;;;;;;20.83;18.77;;;;;;;9.65;90.29;101226.31;5000515;28;20211;-80
2023/04/16 09:34:35;;;;;;;20.97;18.87;;;;;;;9.69;89.78;101239.38;5006604;28;20666;-79
2023/04/16 09:37:28;;;;;;;20.30;18.17;;;;;;;9.70;90.13;101250.66;5019374;28;20231;-79
2023/04/16 09:39:57;;;;;;;21.67;19.17;;;;;;;9.77;90.40;101223.69;5003892;28;20266;-80
2023/04/16 09:42:26;;;;;;;19.27;17.47;;;;;;;9.84;90.08;101227.16;5018735;28;20226;-79
2023/04/16 09:44:53;;;;;;;20.37;18.40;;;;;;;9.90;89.53;101245.38;5019194;28;20271;-80
2023/04/16 09:47:19;;;;;;;19.83;17.90;;;;;;;9.88;89.47;101252.34;5018237;28;20238;-79
2023/04/16 09:49:46;;;;;;;20.27;18.13;;;;;;;9.78;89.85;101250.63;5018120;28;20206;-79
2023/04/16 09:52:14;;;;;;;20.13;18.17;;;;;;;9.80;90.03;101241.94;5018135;28;20217;-79
2023/04/16 09:54:47;;;;;;;21.50;19.50;;;;;;;9.94;89.09;101241.88;5015863;28;20292;-79
2023/04/16 09:57:14;;;;;;;21.20;19.23;;;;;;;9.96;88.87;101258.41;5016807;28;20704;-79
2023/04/16 09:59:41;;;;;;;21.10;18.97;;;;;;;9.87;88.85;101269.75;5016747;28;20303;-80
2023/04/16 10:02:08;;;;;;;23.07;20.57;;;;;;;9.83;89.13;101260.19;5017115;28;20228;-80
2023/04/16 10:04:45;;;;;;;22.37;19.83;;;;;;;9.71;89.53;101261.09;5016784;28;20216;-79
2023/04/16 10:07:12;;;;;;;23.13;20.73;;;;;;;9.74;89.76;101258.44;5016536;28;20236;-79
2023/04/16 10:09:39;;;;;;;21.27;19.27;;;;;;;9.79;89.56;101257.56;5016248;28;20253;-80
2023/04/16 10:12:07;;;;;;;22.13;18.80;;;;;;;9.79;89.60;101252.34;5015848;28;20208;-80
2023/04/16 10:14:33;;;;;;;21.93;19.77;;;;;;;9.76;89.61;101260.22;5016963;28;20215;-80
2023/04/16 10:17:00;;;;;;;20.50;18.60;;;;;;;9.76;89.47;101263.66;5016124;28;20249;-80
2023/04/16 10:19:27;;;;;;;21.67;19.43;;;;;;;9.79;88.79;101271.50;5070375;23;20311;-82
2023/04/16 10:21:54;;;;;;;21.00;18.30;;;;;;;9.77;88.82;101275.81;5027159;28;20227;-82
2023/04/16 10:24:21;;;;;;;19.97;17.87;;;;;;;9.76;89.08;101279.31;5036087;28;20244;-80
2023/04/16 10:26:49;;;;;;;20.93;18.87;;;;;;;9.80;89.28;101278.44;5035978;28;20232;-83
2023/04/16 10:29:18;;;;;;;20.47;18.50;;;;;;;9.80;88.93;101283.66;5019526;28;20223;-82
2023/04/16 10:31:46;;;;;;;21.53;19.43;;;;;;;9.83;88.92;101282.75;5017065;28;20203;-82
2023/04/16 10:34:13;;;;;;;22.47;19.53;;;;;;;9.79;89.30;101276.72;5017239;28;20304;-83
2023/04/16 10:36:40;;;;;;;20.90;18.90;;;;;;;9.78;89.20;101293.22;5016879;28;20208;-82
2023/04/16 10:39:10;;;;;;;22.83;20.53;;;;;;;9.85;88.98;101286.25;5016091;28;20662;-81
2023/04/16 10:41:37;;;;;;;23.83;20.00;;;;;;;9.80;88.92;101296.69;5016635;28;20302;-83
2023/04/16 10:44:08;;;;;;;23.43;21.03;;;;;;;9.78;89.12;101295.81;5016441;28;20210;-82
2023/04/16 10:46:37;;;;;;;22.20;20.13;;;;;;;9.81;89.16;101288.00;5016400;28;20697;-82
2023/04/16 10:49:14;;;;;;;23.33;21.07;;;;;;;9.82;89.21;101292.34;5015633;28;20298;-82
2023/04/16 10:51:41;;;;;;;21.17;19.20;;;;;;;9.82;89.64;101278.44;5015890;28;20206;-83
2023/04/16 10:54:21;;;;;;;20.77;19.07;;;;;;;9.84;89.89;101276.69;5008011;28;20216;-82
2023/04/16 10:56:47;;;;;;;22.37;20.10;;;;;;;9.67;91.60;101254.16;5004711;28;20197;-82
2023/04/16 10:59:18;;;;;;;23.27;20.80;;;;;;;9.77;92.25;101226.28;5007694;28;20590;-82
2023/04/16 11:01:48;;;;;;;22.73;20.77;;;;;;;9.79;92.60;101205.44;5006306;28;20206;-83
2023/04/16 11:04:29;;;;;;;23.63;21.30;;;;;;;9.80;92.27;101210.66;5005966;28;20198;-83
2023/04/16 11:07:03;;;;;;;21.87;19.93;;;;;;;9.79;92.24;101210.63;5008602;28;20230;-84
2023/04/16 11:09:47;;;;;;;22.33;20.27;;;;;;;9.82;92.11;101203.69;5004390;28;20278;-83
2023/04/16 11:12:17;;;;;;;25.77;23.37;;;;;;;9.78;93.45;101194.13;5004696;28;20211;-82
2023/04/16 11:14:47;;;;;;;23.63;21.40;;;;;;;9.82;93.27;101182.81;5003773;28;20196;-82